createdAt,value
2022-11-16T00:00:26.071Z,11.61
2022-11-16T00:02:52.612Z,11.60
2022-11-16T00:05:21.158Z,11.68
2022-11-16T00:07:50.712Z,11.60
2022-11-16T00:10:17.451Z,11.57
2022-11-16T00:12:45.373Z,11.59
2022-11-16T00:15:11.867Z,11.59
2022-11-16T00:17:38.423Z,11.58
2022-11-16T00:20:06.113Z,11.56
2022-11-16T00:22:32.680Z,11.57
2022-11-16T00:24:59.160Z,11.54
2022-11-16T00:27:25.726Z,11.56
2022-11-16T00:29:53.543Z,11.56
2022-11-16T00:32:20.108Z,11.54
2022-11-16T00:34:46.631Z,11.54
2022-11-16T00:37:13.192Z,11.53
2022-11-16T00:39:39.667Z,11.54
2022-11-16T00:42:06.424Z,11.54
2022-11-16T00:44:32.966Z,11.54
2022-11-16T00:47:00.871Z,11.54
2022-11-16T00:49:27.391Z,11.59
2022-11-16T00:51:54.311Z,11.66
2022-11-16T00:54:20.795Z,11.61
2022-11-16T00:56:47.484Z,11.61
2022-11-16T00:59:14.303Z,11.63
2022-11-16T01:01:42.289Z,11.56
2022-11-16T01:04:10.222Z,11.53
2022-11-16T01:06:36.787Z,11.53
2022-11-16T01:09:03.441Z,11.51
2022-11-16T01:11:30.091Z,11.52
2022-11-16T01:13:58.384Z,11.50
2022-11-16T01:16:24.947Z,11.53
2022-11-16T01:18:53.679Z,11.55
2022-11-16T01:21:22.908Z,11.53
2022-11-16T01:23:50.087Z,11.49
2022-11-16T01:26:17.251Z,11.43
2022-11-16T01:28:44.004Z,11.56
2022-11-16T01:31:12.072Z,11.57
2022-11-16T01:33:39.280Z,11.60
2022-11-16T01:36:10.577Z,11.66
2022-11-16T01:38:38.527Z,11.64
2022-11-16T01:41:05.392Z,11.61
2022-11-16T01:43:54.305Z,11.62
2022-11-16T01:46:24.846Z,11.63
2022-11-16T01:48:57.290Z,11.60
2022-11-16T01:51:24.755Z,11.48
2022-11-16T01:53:53.546Z,11.62
2022-11-16T01:56:21.461Z,11.57
2022-11-16T01:59:02.200Z,11.61
2022-11-16T02:01:29.171Z,11.63
2022-11-16T02:03:58.708Z,11.61
2022-11-16T02:06:39.892Z,11.62
2022-11-16T02:09:34.565Z,11.68
2022-11-16T02:12:26.750Z,11.68
2022-11-16T02:15:07.818Z,11.61
2022-11-16T02:17:45.309Z,11.49
2022-11-16T02:20:43.127Z,11.50
2022-11-16T02:23:38.825Z,11.55
2022-11-16T02:26:20.071Z,11.53
2022-11-16T02:28:56.379Z,11.44
2022-11-16T02:31:30.649Z,11.53
2022-11-16T02:34:00.524Z,11.57
2022-11-16T02:39:54.219Z,11.47
2022-11-16T02:42:27.631Z,11.53
2022-11-16T02:44:57.864Z,11.48
2022-11-16T02:47:30.876Z,11.52
2022-11-16T02:50:03.285Z,11.48
2022-11-16T02:52:29.981Z,11.46
2022-11-16T02:54:56.884Z,11.44
2022-11-16T02:57:40.592Z,11.40
2022-11-16T03:00:16.609Z,11.42
2022-11-16T03:02:50.529Z,11.42
2022-11-16T03:05:21.284Z,11.36
2022-11-16T03:08:01.651Z,11.40
2022-11-16T03:10:31.450Z,11.36
2022-11-16T03:13:00.412Z,11.34
2022-11-16T03:15:27.496Z,11.36
2022-11-16T03:17:58.134Z,11.36
2022-11-16T03:20:29.679Z,11.32
2022-11-16T03:23:00.915Z,11.35
2022-11-16T03:25:32.382Z,11.20
2022-11-16T03:28:06.767Z,11.32
2022-11-16T03:30:38.136Z,11.35
2022-11-16T03:33:16.005Z,11.32
2022-11-16T03:35:49.112Z,11.32
2022-11-16T03:38:18.704Z,11.27
2022-11-16T03:40:47.355Z,11.31
2022-11-16T03:43:15.738Z,11.26
2022-11-16T03:45:43.025Z,11.28
2022-11-16T03:48:11.557Z,11.28
2022-11-16T03:50:38.199Z,11.23
2022-11-16T03:53:04.713Z,11.30
2022-11-16T03:55:32.036Z,11.30
2022-11-16T03:57:58.750Z,11.30
2022-11-16T04:00:25.342Z,11.31
2022-11-16T04:02:53.079Z,11.30
2022-11-16T04:05:23.249Z,11.31
2022-11-16T04:07:49.748Z,11.29
2022-11-16T04:10:16.461Z,11.29
2022-11-16T04:12:44.384Z,11.27
2022-11-16T04:15:11.237Z,11.25
2022-11-16T04:17:37.959Z,11.30
2022-11-16T04:20:05.804Z,11.29
2022-11-16T04:22:43.575Z,11.30
2022-11-16T04:25:15.723Z,11.19
2022-11-16T04:27:42.440Z,11.25
2022-11-16T04:30:11.253Z,11.24
2022-11-16T04:32:37.977Z,11.26
2022-11-16T04:35:05.026Z,11.27
2022-11-16T04:37:31.846Z,11.30
2022-11-16T04:39:59.737Z,11.30
2022-11-16T04:42:26.551Z,11.32
2022-11-16T04:44:53.120Z,11.33
2022-11-16T04:47:20.137Z,11.33
2022-11-16T04:49:47.804Z,11.32
2022-11-16T04:52:14.380Z,11.33
2022-11-16T04:54:42.362Z,11.32
2022-11-16T04:57:10.997Z,11.30
2022-11-16T04:59:37.621Z,11.30
2022-11-16T05:02:04.274Z,11.34
2022-11-16T05:04:30.980Z,11.36
2022-11-16T05:06:58.294Z,11.36
2022-11-16T05:09:25.012Z,11.39
2022-11-16T05:11:53.410Z,11.29
2022-11-16T05:14:21.399Z,11.35
2022-11-16T05:16:48.654Z,11.34
2022-11-16T05:19:15.193Z,11.33
2022-11-16T05:21:42.004Z,11.28
2022-11-16T05:24:10.300Z,11.31
2022-11-16T05:26:36.894Z,11.31
2022-11-16T05:29:03.432Z,11.29
2022-11-16T05:31:35.114Z,11.29
2022-11-16T05:34:05.904Z,11.19
2022-11-16T05:36:32.876Z,11.20
2022-11-16T05:38:59.521Z,11.06
2022-11-16T05:41:30.193Z,11.22
2022-11-16T05:43:58.235Z,10.46
2022-11-16T05:46:25.877Z,11.07
2022-11-16T05:48:56.482Z,11.17
2022-11-16T05:51:24.080Z,11.18
2022-11-16T05:53:52.766Z,10.83
2022-11-16T05:56:22.241Z,11.03
2022-11-16T05:58:49.831Z,10.94
2022-11-16T06:01:16.486Z,10.90
2022-11-16T06:03:43.101Z,10.74
2022-11-16T06:06:11.241Z,10.67
2022-11-16T06:08:38.023Z,10.69
2022-11-16T06:11:09.942Z,10.41
2022-11-16T06:13:37.412Z,10.43
2022-11-16T06:16:05.214Z,10.36
2022-11-16T06:18:37.001Z,10.12
2022-11-16T06:21:04.540Z,10.28
2022-11-16T06:23:33.714Z,10.27
2022-11-16T06:26:00.796Z,10.24
2022-11-16T06:28:27.699Z,10.22
2022-11-16T06:30:55.065Z,10.19
2022-11-16T06:33:24.133Z,10.18
2022-11-16T06:35:50.925Z,10.17
2022-11-16T06:38:21.267Z,10.10
2022-11-16T06:40:52.283Z,10.04
2022-11-16T06:43:20.907Z,9.85
2022-11-16T06:45:49.097Z,9.91
2022-11-16T06:48:15.797Z,9.85
2022-11-16T06:50:44.737Z,9.78
2022-11-16T06:53:11.413Z,9.75
2022-11-16T06:55:38.803Z,9.68
2022-11-16T06:58:06.809Z,9.61
2022-11-16T07:00:33.861Z,9.54
2022-11-16T07:03:02.328Z,9.60
2022-11-16T07:05:29.489Z,9.62
2022-11-16T07:07:56.468Z,9.63
2022-11-16T07:10:24.345Z,9.60
2022-11-16T07:12:52.504Z,9.53
2022-11-16T07:15:21.839Z,9.48
2022-11-16T07:17:48.482Z,9.12
2022-11-16T07:20:15.725Z,9.33
2022-11-16T07:22:43.490Z,9.25
2022-11-16T07:25:14.063Z,9.16
2022-11-16T07:27:40.956Z,9.10
2022-11-16T07:30:08.634Z,9.01
2022-11-16T07:32:58.531Z,8.95
2022-11-16T07:35:45.395Z,8.75
2022-11-16T07:38:16.856Z,8.82
2022-11-16T07:40:45.216Z,8.75
2022-11-16T07:43:14.890Z,8.74
2022-11-16T07:48:54.985Z,8.63
2022-11-16T07:51:40.285Z,8.48
2022-11-16T07:54:23.540Z,8.25
2022-11-16T07:56:52.957Z,8.53
2022-11-16T07:59:19.515Z,8.56
2022-11-16T08:01:46.973Z,8.51
2022-11-16T08:04:15.545Z,8.50
2022-11-16T08:06:42.420Z,8.49
2022-11-16T08:09:09.242Z,8.52
2022-11-16T08:11:36.527Z,8.35
2022-11-16T08:14:03.823Z,8.56
2022-11-16T08:16:30.610Z,8.55
2022-11-16T08:19:06.111Z,8.51
2022-11-16T08:21:34.752Z,8.52
2022-11-16T08:24:01.433Z,8.59
2022-11-16T08:26:29.380Z,8.67
2022-11-16T08:29:01.505Z,8.78
2022-11-16T08:31:33.102Z,8.82
2022-11-16T08:34:10.979Z,8.95
2022-11-16T08:36:42.355Z,8.99
2022-11-16T08:39:09.613Z,9.08
2022-11-16T08:41:37.478Z,9.16
2022-11-16T08:44:06.192Z,9.22
2022-11-16T08:46:36.046Z,9.22
2022-11-16T08:49:13.202Z,9.42
2022-11-16T08:51:39.921Z,9.29
2022-11-16T08:54:07.797Z,9.47
2022-11-16T08:56:37.099Z,9.43
2022-11-16T08:59:04.732Z,9.55
2022-11-16T09:01:31.966Z,9.65
2022-11-16T09:03:59.059Z,9.66
2022-11-16T09:06:27.017Z,9.48
2022-11-16T09:08:53.771Z,9.73
2022-11-16T09:11:23.734Z,9.72
2022-11-16T09:13:52.278Z,9.82
2022-11-16T09:16:19.715Z,9.89
2022-11-16T09:18:47.273Z,9.97
2022-11-16T09:21:17.388Z,9.90
2022-11-16T09:23:43.944Z,10.02
2022-11-16T09:26:10.600Z,9.88
2022-11-16T09:28:38.477Z,10.05
2022-11-16T09:31:05.258Z,10.09
2022-11-16T09:33:33.056Z,10.24
2022-11-16T09:36:04.114Z,10.32
2022-11-16T09:38:54.305Z,10.40
2022-11-16T09:41:33.410Z,10.45
2022-11-16T09:44:09.660Z,10.52
2022-11-16T09:46:40.625Z,10.63
2022-11-16T09:49:17.652Z,10.78
2022-11-16T09:51:47.681Z,10.85
2022-11-16T09:54:17.764Z,10.83
2022-11-16T09:56:47.503Z,10.89
2022-11-16T09:59:21.502Z,10.97
2022-11-16T10:01:52.504Z,10.89
2022-11-16T10:04:24.723Z,11.13
2022-11-16T10:06:57.061Z,11.13
2022-11-16T10:09:24.518Z,11.17
2022-11-16T10:12:02.722Z,11.23
2022-11-16T10:14:55.148Z,11.46
2022-11-16T10:17:30.142Z,11.38
2022-11-16T10:20:16.661Z,11.66
2022-11-16T10:22:54.531Z,11.65
2022-11-16T10:25:23.858Z,11.55
2022-11-16T10:28:20.846Z,11.70
2022-11-16T10:30:59.089Z,11.86
2022-11-16T10:33:28.525Z,12.03
2022-11-16T10:35:55.009Z,12.12
2022-11-16T10:38:25.804Z,12.16
2022-11-16T10:40:56.400Z,12.32
2022-11-16T10:43:25.378Z,12.39
2022-11-16T10:45:58.842Z,12.53
2022-11-16T10:48:34.907Z,12.64
2022-11-16T10:51:01.600Z,12.64
2022-11-16T10:53:32.038Z,12.73
2022-11-16T10:56:10.996Z,12.96
2022-11-16T10:58:53.380Z,13.05
2022-11-16T11:01:36.208Z,13.26
2022-11-16T11:04:17.744Z,13.34
2022-11-16T11:06:45.870Z,13.20
2022-11-16T11:09:23.408Z,13.42
2022-11-16T11:11:58.049Z,12.99
2022-11-16T11:14:24.669Z,13.69
2022-11-16T11:16:54.053Z,13.83
2022-11-16T11:19:25.552Z,13.91
2022-11-16T11:21:55.955Z,13.92
2022-11-16T11:24:43.817Z,13.98
2022-11-16T11:27:09.551Z,13.96
2022-11-16T11:29:37.273Z,13.84
2022-11-16T11:32:07.808Z,14.16
2022-11-16T11:34:40.102Z,14.12
2022-11-16T11:37:13.915Z,14.21
2022-11-16T11:39:40.689Z,14.17
2022-11-16T11:42:21.441Z,14.30
2022-11-16T11:44:53.487Z,14.51
2022-11-16T11:50:36.097Z,14.88
2022-11-16T11:53:06.907Z,15.14
2022-11-16T11:55:34.385Z,15.23
2022-11-16T11:58:02.962Z,14.75
2022-11-16T12:00:42.154Z,15.05
2022-11-16T12:03:37.450Z,15.30
2022-11-16T12:06:11.057Z,15.45
2022-11-16T12:08:52.319Z,15.67
2022-11-16T12:11:27.042Z,15.75
2022-11-16T12:14:06.355Z,15.59
2022-11-16T12:16:39.422Z,15.53
2022-11-16T12:19:27.741Z,15.51
2022-11-16T12:22:07.290Z,15.47
2022-11-16T12:24:58.951Z,15.55
2022-11-16T12:27:37.616Z,15.74
2022-11-16T12:30:10.375Z,15.75
2022-11-16T12:32:49.259Z,15.88
2022-11-16T12:35:31.581Z,16.23
2022-11-16T12:38:10.571Z,16.26
2022-11-16T12:40:52.508Z,16.03
2022-11-16T12:43:27.617Z,16.09
2022-11-16T12:46:05.149Z,15.73
2022-11-16T12:48:59.193Z,16.55
2022-11-16T12:51:47.781Z,16.60
2022-11-16T12:54:30.588Z,16.65
2022-11-16T12:57:04.773Z,16.60
2022-11-16T12:59:49.876Z,16.56
2022-11-16T13:02:32.135Z,16.54
2022-11-16T13:05:03.603Z,16.19
2022-11-16T13:07:38.738Z,15.97
2022-11-16T13:10:16.783Z,15.97
2022-11-16T13:12:47.527Z,15.72
2022-11-16T13:15:17.693Z,16.00
2022-11-16T13:17:50.016Z,16.12
2022-11-16T13:20:29.546Z,16.21
2022-11-16T13:23:04.313Z,16.09
2022-11-16T13:25:36.374Z,15.90
2022-11-16T13:28:13.837Z,15.95
2022-11-16T13:30:50.562Z,15.80
2022-11-16T13:33:32.657Z,16.18
2022-11-16T13:35:59.421Z,16.32
2022-11-16T13:38:53.006Z,16.24
2022-11-16T13:41:33.472Z,16.13
2022-11-16T13:44:00.634Z,15.91
2022-11-16T13:46:55.188Z,15.78
2022-11-16T13:49:29.526Z,15.72
2022-11-16T13:52:11.351Z,15.70
2022-11-16T13:54:49.442Z,15.42
2022-11-16T13:57:21.553Z,15.40
2022-11-16T14:00:07.105Z,15.30
2022-11-16T14:02:35.881Z,15.21
2022-11-16T14:05:03.892Z,14.87
2022-11-16T14:07:36.614Z,14.84
2022-11-16T14:10:05.525Z,14.77
2022-11-16T14:12:56.155Z,14.69
2022-11-16T14:15:29.115Z,14.58
2022-11-16T14:17:59.325Z,14.51
2022-11-16T14:20:44.147Z,14.55
2022-11-16T14:23:29.084Z,14.44
2022-11-16T14:26:17.622Z,14.36
2022-11-16T14:29:17.184Z,14.24
2022-11-16T14:31:50.364Z,14.17
2022-11-16T14:34:19.897Z,13.97
2022-11-16T14:36:47.827Z,14.07
2022-11-16T14:39:36.580Z,14.05
2022-11-16T14:42:06.737Z,13.98
2022-11-16T14:44:37.721Z,13.94
2022-11-16T14:47:05.203Z,13.90
2022-11-16T14:49:35.643Z,13.89
2022-11-16T14:52:04.889Z,13.84
2022-11-16T14:54:37.730Z,13.70
2022-11-16T14:57:07.605Z,13.75
2022-11-16T14:59:34.151Z,13.69
2022-11-16T15:02:04.431Z,13.74
2022-11-16T15:04:31.577Z,13.62
2022-11-16T15:07:02.339Z,13.67
2022-11-16T15:09:32.864Z,13.58
2022-11-16T15:12:01.039Z,13.57
2022-11-16T15:14:32.482Z,13.46
2022-11-16T15:16:59.668Z,13.30
2022-11-16T15:19:29.946Z,13.23
2022-11-16T15:21:58.637Z,13.19
2022-11-16T15:24:31.872Z,12.87
2022-11-16T15:27:09.830Z,12.81
2022-11-16T15:29:38.392Z,12.83
2022-11-16T15:32:07.194Z,12.71
2022-11-16T15:34:33.840Z,12.59
2022-11-16T15:37:00.534Z,12.24
2022-11-16T15:39:32.769Z,12.42
2022-11-16T15:42:03.763Z,12.38
2022-11-16T15:44:31.638Z,12.35
2022-11-16T15:47:00.199Z,12.25
2022-11-16T15:49:29.199Z,12.16
2022-11-16T15:51:57.767Z,12.15
2022-11-16T15:54:26.896Z,12.08
2022-11-16T15:56:55.857Z,12.04
2022-11-16T15:59:27.320Z,11.85
2022-11-16T16:01:54.878Z,11.78
2022-11-16T16:04:24.069Z,11.95
2022-11-16T16:06:52.637Z,11.83
2022-11-16T16:09:25.522Z,11.72
2022-11-16T16:11:53.070Z,11.60
2022-11-16T16:14:24.946Z,11.67
2022-11-16T16:16:53.365Z,11.34
2022-11-16T16:19:37.215Z,11.01
2022-11-16T16:22:06.180Z,11.44
2022-11-16T16:24:36.217Z,11.37
2022-11-16T16:27:08.890Z,11.17
2022-11-16T16:29:35.467Z,11.15
2022-11-16T16:32:02.166Z,11.09
2022-11-16T16:34:28.908Z,11.02
2022-11-16T16:36:57.061Z,10.79
2022-11-16T16:39:23.783Z,10.83
2022-11-16T16:41:50.344Z,10.73
2022-11-16T16:44:17.647Z,10.63
2022-11-16T16:46:44.126Z,10.54
2022-11-16T16:49:10.840Z,10.47
2022-11-16T16:51:37.368Z,10.38
2022-11-16T16:54:05.626Z,10.32
2022-11-16T16:56:32.111Z,10.24
2022-11-16T16:58:58.717Z,10.14
2022-11-16T17:01:25.236Z,10.07
2022-11-16T17:03:51.853Z,10.02
2022-11-16T17:06:18.386Z,9.87
2022-11-16T17:08:44.983Z,9.84
2022-11-16T17:11:12.901Z,9.75
2022-11-16T17:13:39.460Z,9.71
2022-11-16T17:16:06.397Z,9.62
2022-11-16T17:18:32.998Z,9.50
2022-11-16T17:21:03.778Z,9.43
2022-11-16T17:23:30.338Z,9.32
2022-11-16T17:25:56.889Z,9.23
2022-11-16T17:28:24.930Z,8.96
2022-11-16T17:30:51.426Z,8.89
2022-11-16T17:33:18.184Z,9.00
2022-11-16T17:35:54.743Z,8.97
2022-11-16T17:38:21.360Z,8.90
2022-11-16T17:40:47.865Z,8.84
2022-11-16T17:43:14.374Z,8.80
2022-11-16T17:45:42.193Z,8.75
2022-11-16T17:48:09.005Z,8.70
2022-11-16T17:50:35.481Z,8.67
2022-11-16T17:53:02.349Z,8.65
2022-11-16T17:55:28.977Z,8.67
2022-11-16T17:57:56.915Z,8.57
2022-11-16T18:00:24.690Z,8.42
2022-11-16T18:02:52.726Z,8.47
2022-11-16T18:05:19.260Z,8.24
2022-11-16T18:07:46.562Z,8.34
2022-11-16T18:10:18.898Z,8.29
2022-11-16T18:12:45.989Z,7.99
2022-11-16T18:15:27.868Z,8.12
2022-11-16T18:17:56.914Z,7.87
2022-11-16T18:20:23.461Z,7.71
2022-11-16T18:22:50.022Z,7.87
2022-11-16T18:25:16.535Z,7.42
2022-11-16T18:27:43.461Z,7.61
2022-11-16T18:30:10.732Z,7.70
2022-11-16T18:32:37.686Z,7.66
2022-11-16T18:35:06.497Z,7.64
2022-11-16T18:37:33.163Z,7.62
2022-11-16T18:39:59.683Z,7.35
2022-11-16T18:42:26.280Z,7.52
2022-11-16T18:44:52.767Z,7.59
2022-11-16T18:47:19.346Z,7.58
2022-11-16T18:49:45.838Z,7.58
2022-11-16T18:52:13.716Z,7.59
2022-11-16T18:54:40.233Z,7.63
2022-11-16T18:57:06.927Z,7.67
2022-11-16T18:59:33.409Z,7.70
2022-11-16T19:02:00.476Z,7.71
2022-11-16T19:04:27.028Z,7.70
2022-11-16T19:06:53.779Z,7.66
2022-11-16T19:09:21.654Z,7.73
2022-11-16T19:11:48.822Z,7.59
2022-11-16T19:14:15.293Z,7.76
2022-11-16T19:16:48.985Z,7.74
2022-11-16T19:19:18.089Z,7.66
2022-11-16T19:21:44.582Z,7.69
2022-11-16T19:24:11.248Z,7.68
2022-11-16T19:26:39.222Z,7.67
2022-11-16T19:29:05.789Z,7.65
2022-11-16T19:31:32.565Z,7.67
2022-11-16T19:34:01.081Z,7.68
2022-11-16T19:36:29.351Z,7.65
2022-11-16T19:38:56.575Z,7.63
2022-11-16T19:41:23.984Z,7.67
2022-11-16T19:43:53.225Z,7.48
2022-11-16T19:46:19.834Z,7.61
2022-11-16T19:48:47.694Z,7.65
2022-11-16T19:51:16.126Z,7.69
2022-11-16T19:53:42.716Z,7.75
2022-11-16T19:56:11.073Z,7.78
2022-11-16T19:58:37.936Z,7.71
2022-11-16T20:01:07.758Z,7.79
2022-11-16T20:03:35.001Z,7.91
2022-11-16T20:06:06.927Z,7.96
2022-11-16T20:08:33.509Z,7.98
2022-11-16T20:11:00.148Z,7.93
2022-11-16T20:13:26.737Z,8.08
2022-11-16T20:15:53.221Z,8.13
2022-11-16T20:18:21.194Z,8.17
2022-11-16T20:20:47.689Z,8.27
2022-11-16T20:23:15.040Z,8.27
2022-11-16T20:25:41.549Z,8.31
2022-11-16T20:28:08.166Z,8.35
2022-11-16T20:30:34.932Z,8.39
2022-11-16T20:33:01.546Z,8.43
2022-11-16T20:35:30.544Z,8.47
2022-11-16T20:37:57.111Z,8.48
2022-11-16T20:40:24.821Z,8.49
2022-11-16T20:42:51.762Z,8.38
2022-11-16T20:45:18.232Z,8.62
2022-11-16T20:47:44.820Z,8.67
2022-11-16T20:50:11.302Z,8.68
2022-11-16T20:52:42.719Z,8.43
2022-11-16T20:55:11.084Z,8.61
2022-11-16T20:57:37.575Z,8.81
2022-11-16T21:00:05.162Z,8.81
2022-11-16T21:02:31.787Z,8.81
2022-11-16T21:05:00.422Z,8.82
2022-11-16T21:07:27.185Z,8.85
2022-11-16T21:09:55.381Z,8.89
2022-11-16T21:12:21.861Z,9.00
2022-11-16T21:14:48.434Z,8.92
2022-11-16T21:17:15.069Z,9.13
2022-11-16T21:19:54.311Z,8.84
2022-11-16T21:22:32.126Z,9.22
2022-11-16T21:25:00.940Z,9.21
2022-11-16T21:27:27.446Z,9.29
2022-11-16T21:29:53.966Z,9.37
2022-11-16T21:32:20.463Z,9.45
2022-11-16T21:34:47.035Z,9.59
2022-11-16T21:37:13.499Z,9.56
2022-11-16T21:39:40.102Z,9.59
2022-11-16T21:42:07.966Z,9.73
2022-11-16T21:44:34.580Z,9.74
2022-11-16T21:47:01.106Z,9.65
2022-11-16T21:49:27.676Z,9.82
2022-11-16T21:51:54.162Z,9.92
2022-11-16T21:54:20.699Z,9.97
2022-11-16T21:56:47.226Z,9.93
2022-11-16T21:59:15.129Z,9.99
2022-11-16T22:01:41.704Z,10.08
2022-11-16T22:04:08.361Z,10.15
2022-11-16T22:06:35.184Z,10.21
2022-11-16T22:09:01.868Z,10.26
2022-11-16T22:11:28.493Z,10.18
2022-11-16T22:13:55.109Z,10.04
2022-11-16T22:16:23.309Z,10.18
2022-11-16T22:18:50.476Z,10.33
2022-11-16T22:21:17.458Z,10.36
2022-11-16T22:23:44.033Z,10.43
2022-11-16T22:26:13.150Z,10.40
2022-11-16T22:28:40.051Z,10.47
2022-11-16T22:31:07.620Z,10.51
2022-11-16T22:33:36.134Z,10.52
2022-11-16T22:36:03.220Z,10.54
2022-11-16T22:38:30.353Z,10.46
2022-11-16T22:40:57.719Z,10.50
2022-11-16T22:43:25.947Z,10.52
2022-11-16T22:45:57.073Z,10.47
2022-11-16T22:48:23.655Z,10.45
2022-11-16T22:51:01.513Z,10.45
2022-11-16T22:53:28.132Z,10.55
2022-11-16T22:55:54.604Z,10.51
2022-11-16T22:58:21.153Z,10.48
2022-11-16T23:00:47.677Z,10.23
2022-11-16T23:03:14.301Z,10.53
2022-11-16T23:05:40.801Z,10.55
2022-11-16T23:08:08.707Z,10.53
2022-11-16T23:10:36.445Z,10.51
2022-11-16T23:13:03.002Z,10.53
2022-11-16T23:15:29.544Z,10.27
2022-11-16T23:17:56.106Z,10.57
2022-11-16T23:20:23.043Z,10.50
2022-11-16T23:22:49.588Z,10.62
2022-11-16T23:25:18.152Z,10.62
2022-11-16T23:27:52.095Z,10.60
2022-11-16T23:30:18.904Z,10.43
2022-11-16T23:32:45.483Z,10.59
2022-11-16T23:35:12.330Z,10.62
2022-11-16T23:37:53.301Z,10.60
2022-11-16T23:40:23.094Z,10.57
2022-11-16T23:42:49.617Z,10.55
2022-11-16T23:45:16.163Z,10.63
2022-11-16T23:47:42.688Z,10.66
2022-11-16T23:50:09.481Z,10.64
2022-11-16T23:52:36.004Z,10.68
2022-11-16T23:55:02.601Z,10.65
2022-11-16T23:57:30.455Z,10.60
2022-11-16T23:59:57.043Z,10.56
